Time;durP1;ratioP1;P1;durP2;ratioP2;P2;SDS_P1;SDS_P2;PMS_P1;PMS_P2;Temp;Humidity;BMP_temperature;BMP_pressure;BME280_temperature;BME280_humidity;BME280_pressure;Samples;Min_cycle;Max_cycle;Signal;HPM_P1;HPM_P2
2022/10/03 00:01:40;;;;;;;;;;;16.50;91.40;;;;;;5075193;28;20004;-90
2022/10/03 00:04:06;;;;;;;;;;;16.50;91.40;;;;;;5074648;28;20463;-90
2022/10/03 00:06:38;;;;;;;;;;;16.40;91.50;;;;;;5080927;28;20035;-90
2022/10/03 00:09:04;;;;;;;;;;;16.40;91.50;;;;;;5086530;28;19945;-90
2022/10/03 00:11:47;;;;;;;;;;;16.40;91.30;;;;;;5075743;28;19955;-90
2022/10/03 00:14:13;;;;;;;;;;;16.40;91.00;;;;;;5074884;28;19986;-90
2022/10/03 00:17:02;;;;;;;;;;;16.40;91.10;;;;;;5075038;28;19941;-90
2022/10/03 00:19:36;;;;;;;;;;;16.40;91.50;;;;;;5074741;28;19969;-90
2022/10/03 00:22:02;;;;;;;;;;;16.40;91.60;;;;;;5074784;28;19941;-91
2022/10/03 00:24:36;;;;;;;;;;;16.50;91.80;;;;;;5074606;28;20013;-90
2022/10/03 00:27:06;;;;;;;;;;;16.60;92.00;;;;;;5084086;28;20010;-90
2022/10/03 00:29:38;;;;;;;;;;;16.70;92.10;;;;;;5094032;28;19940;-90
2022/10/03 00:32:09;;;;;;;;;;;16.80;92.30;;;;;;5094776;28;19991;-90
2022/10/03 00:34:56;;;;;;;;;;;16.80;92.30;;;;;;5094748;28;20488;-91
2022/10/03 00:37:25;;;;;;;;;;;16.90;92.40;;;;;;5082108;28;19960;-90
2022/10/03 00:40:06;;;;;;;;;;;17.00;92.40;;;;;;5074361;28;19967;-90
2022/10/03 00:42:38;;;;;;;;;;;17.00;92.50;;;;;;5074319;28;20420;-91
2022/10/03 00:45:10;;;;;;;;;;;17.10;92.50;;;;;;5074230;28;19969;-90
2022/10/03 00:48:02;;;;;;;;;;;17.10;92.40;;;;;;5074346;28;20390;-90
2022/10/03 00:50:57;;;;;;;;;;;17.30;92.30;;;;;;5073787;28;19946;-90
2022/10/03 00:53:26;;;;;;;;;;;17.30;92.20;;;;;;5073539;28;19946;-91
2022/10/03 00:56:01;;;;;;;;;;;17.30;92.00;;;;;;5074069;28;20084;-90
2022/10/03 00:58:38;;;;;;;;;;;17.30;91.80;;;;;;5072812;28;20383;-91
2022/10/03 01:01:22;;;;;;;;;;;17.40;91.60;;;;;;5074019;28;19939;-91
2022/10/03 01:03:56;;;;;;;;;;;17.40;91.60;;;;;;5073981;28;19941;-91
2022/10/03 01:06:33;;;;;;;;;;;17.40;91.40;;;;;;5077324;28;19956;-90
2022/10/03 01:09:08;;;;;;;;;;;17.40;91.20;;;;;;5094152;28;19945;-90
2022/10/03 01:11:49;;;;;;;;;;;17.50;91.00;;;;;;5094075;28;20057;-90
2022/10/03 01:14:18;;;;;;;;;;;17.50;90.90;;;;;;5079133;28;20356;-91
2022/10/03 01:16:58;;;;;;;;;;;17.50;90.70;;;;;;5073639;28;19962;-91
2022/10/03 01:19:31;;;;;;;;;;;17.50;90.60;;;;;;5073680;28;20458;-90
2022/10/03 01:21:56;;;;;;;;;;;17.50;90.60;;;;;;5073618;28;19946;-90
2022/10/03 01:24:40;;;;;;;;;;;17.60;90.40;;;;;;5073698;28;19958;-90
2022/10/03 01:27:09;;;;;;;;;;;17.50;90.40;;;;;;5073572;28;19985;-90
2022/10/03 01:32:39;;;;;;;;;;;17.50;90.20;;;;;;5073995;28;19997;-90
2022/10/03 01:35:06;;;;;;;;;;;17.60;90.10;;;;;;5073487;28;19942;-90
2022/10/03 01:37:32;;;;;;;;;;;17.60;90.00;;;;;;5073731;28;20051;-90
2022/10/03 01:40:24;;;;;;;;;;;17.60;90.00;;;;;;5073180;28;19992;-90
2022/10/03 01:42:50;;;;;;;;;;;17.50;89.90;;;;;;5073611;28;19947;-90
2022/10/03 01:45:48;;;;;;;;;;;17.60;89.80;;;;;;5073227;28;19962;-91
2022/10/03 01:48:16;;;;;;;;;;;17.60;89.80;;;;;;5072094;28;19954;-90
2022/10/03 01:50:50;;;;;;;;;;;17.60;89.80;;;;;;5073079;28;20384;-90
2022/10/03 01:53:18;;;;;;;;;;;17.60;89.70;;;;;;5073589;28;19944;-90
2022/10/03 01:55:55;;;;;;;;;;;17.60;89.60;;;;;;5073156;28;20033;-90
2022/10/03 01:58:29;;;;;;;;;;;17.60;89.60;;;;;;5073200;28;19939;-90
2022/10/03 02:01:00;;;;;;;;;;;17.60;89.50;;;;;;5073124;28;19936;-90
2022/10/03 02:03:28;;;;;;;;;;;17.60;89.30;;;;;;5079140;28;19948;-90
2022/10/03 02:05:54;;;;;;;;;;;17.60;89.30;;;;;;5093049;28;19972;-90
2022/10/03 02:08:22;;;;;;;;;;;17.60;89.20;;;;;;5093274;28;19938;-90
2022/10/03 02:10:55;;;;;;;;;;;17.60;89.20;;;;;;5093304;28;19973;-90
2022/10/03 02:13:21;;;;;;;;;;;17.60;89.10;;;;;;5087477;28;20079;-91
2022/10/03 02:15:55;;;;;;;;;;;17.60;89.10;;;;;;5072987;28;20395;-90
2022/10/03 02:18:38;;;;;;;;;;;17.60;89.00;;;;;;5072976;28;20392;-90
2022/10/03 02:21:04;;;;;;;;;;;17.60;88.70;;;;;;5072981;28;19964;-91
2022/10/03 02:23:32;;;;;;;;;;;17.70;88.60;;;;;;5079275;28;20400;-90
2022/10/03 02:26:17;;;;;;;;;;;17.70;88.50;;;;;;5093373;28;19960;-91
2022/10/03 02:28:43;;;;;;;;;;;17.70;88.40;;;;;;5093103;28;20040;-90
2022/10/03 02:31:28;;;;;;;;;;;17.60;88.30;;;;;;5093097;28;19990;-90
2022/10/03 02:33:57;;;;;;;;;;;17.50;88.30;;;;;;5082953;28;20414;-90
2022/10/03 02:36:28;;;;;;;;;;;17.50;88.40;;;;;;5073042;28;20024;-91
2022/10/03 02:39:12;;;;;;;;;;;17.40;88.50;;;;;;5072731;28;19992;-90
2022/10/03 02:41:51;;;;;;;;;;;17.40;88.60;;;;;;5073099;28;19939;-90
2022/10/03 02:44:19;;;;;;;;;;;17.30;88.70;;;;;;5085194;28;20000;-90
2022/10/03 02:47:20;;;;;;;;;;;17.30;88.70;;;;;;5092927;28;20392;-90
2022/10/03 02:49:52;;;;;;;;;;;17.10;89.00;;;;;;5049611;28;19940;-90
2022/10/03 02:52:43;;;;;;;;;;;17.00;89.40;;;;;;5076539;28;19967;-90
2022/10/03 02:55:28;;;;;;;;;;;16.90;89.60;;;;;;5089027;28;19943;-90
2022/10/03 02:58:12;;;;;;;;;;;16.80;89.50;;;;;;5096538;28;19965;-90
2022/10/03 03:00:40;;;;;;;;;;;16.70;89.70;;;;;;5096481;28;20020;-91
2022/10/03 03:03:11;;;;;;;;;;;16.70;89.90;;;;;;5093663;28;19968;-90
2022/10/03 03:05:56;;;;;;;;;;;16.60;90.10;;;;;;5075929;28;19974;-91
2022/10/03 03:08:34;;;;;;;;;;;16.50;90.10;;;;;;5076254;28;20095;-90
2022/10/03 03:11:06;;;;;;;;;;;16.40;90.00;;;;;;5075913;28;19941;-90
2022/10/03 03:13:41;;;;;;;;;;;16.40;90.80;;;;;;5076094;28;19948;-90
2022/10/03 03:16:10;;;;;;;;;;;16.30;91.20;;;;;;5075921;28;20313;-90
2022/10/03 03:18:38;;;;;;;;;;;16.20;91.50;;;;;;5075876;28;19954;-90
2022/10/03 03:21:20;;;;;;;;;;;16.20;91.60;;;;;;5075931;28;19941;-90
2022/10/03 03:23:58;;;;;;;;;;;16.10;91.90;;;;;;5075836;28;20384;-90
2022/10/03 03:26:26;;;;;;;;;;;16.10;92.20;;;;;;5075739;28;19963;-90
2022/10/03 03:28:58;;;;;;;;;;;16.10;92.40;;;;;;5077513;28;19987;-90
2022/10/03 03:31:24;;;;;;;;;;;16.10;92.40;;;;;;5076693;28;19943;-90
2022/10/03 03:33:54;;;;;;;;;;;16.10;92.50;;;;;;5091221;28;19955;-90
2022/10/03 03:36:29;;;;;;;;;;;16.10;92.50;;;;;;5081469;28;19947;-90
2022/10/03 03:38:57;;;;;;;;;;;16.10;92.50;;;;;;5082468;28;19991;-91
2022/10/03 03:41:37;;;;;;;;;;;16.10;92.30;;;;;;5086220;28;19956;-90
2022/10/03 03:44:05;;;;;;;;;;;16.00;92.30;;;;;;5079891;28;19946;-90
2022/10/03 03:46:33;;;;;;;;;;;16.00;92.10;;;;;;5085248;28;19947;-90
2022/10/03 03:49:00;;;;;;;;;;;15.90;92.10;;;;;;5082731;28;19945;-91
2022/10/03 03:51:29;;;;;;;;;;;15.80;92.10;;;;;;5099291;28;20004;-90
2022/10/03 03:54:16;;;;;;;;;;;15.80;91.80;;;;;;5115894;28;19937;-90
2022/10/03 03:57:01;;;;;;;;;;;15.70;91.80;;;;;;5116111;27;19946;-91
2022/10/03 03:59:37;;;;;;;;;;;15.60;91.80;;;;;;5115816;28;19937;-90
2022/10/03 04:02:16;;;;;;;;;;;15.50;91.80;;;;;;5115616;28;19938;-90
2022/10/03 04:04:51;;;;;;;;;;;15.60;91.70;;;;;;5115395;28;20553;-90
2022/10/03 04:07:28;;;;;;;;;;;15.50;91.70;;;;;;5103563;28;19947;-90
2022/10/03 04:10:13;;;;;;;;;;;15.50;91.80;;;;;;5094997;28;20007;-90
2022/10/03 04:12:58;;;;;;;;;;;15.40;91.70;;;;;;5093859;28;19947;-90
2022/10/03 04:15:32;;;;;;;;;;;15.30;91.60;;;;;;5094867;28;20278;-90
2022/10/03 04:21:02;;;;;;;;;;;15.10;91.90;;;;;;5086396;28;20442;-90
2022/10/03 04:23:37;;;;;;;;;;;15.00;92.10;;;;;;5094631;28;19936;-90
2022/10/03 04:26:06;;;;;;;;;;;15.10;92.60;;;;;;5092620;28;19957;-91
2022/10/03 04:28:40;;;;;;;;;;;15.00;92.30;;;;;;5094818;28;19941;-90
2022/10/03 04:31:11;;;;;;;;;;;14.90;92.30;;;;;;5094782;28;19941;-90
2022/10/03 04:33:45;;;;;;;;;;;14.90;92.80;;;;;;5094705;28;19950;-90
2022/10/03 04:36:20;;;;;;;;;;;14.90;93.40;;;;;;5094556;28;19984;-90
2022/10/03 04:38:58;;;;;;;;;;;14.90;93.90;;;;;;5094410;28;19940;-90
2022/10/03 04:41:43;;;;;;;;;;;14.90;93.80;;;;;;5094528;28;19947;-90
2022/10/03 04:44:25;;;;;;;;;;;14.90;93.80;;;;;;5094446;28;19947;-91
2022/10/03 04:47:00;;;;;;;;;;;14.90;94.00;;;;;;5094431;28;19936;-91
2022/10/03 04:49:34;;;;;;;;;;;14.90;94.10;;;;;;5094419;28;20008;-90
2022/10/03 04:52:18;;;;;;;;;;;14.90;94.10;;;;;;5094177;28;20048;-90
2022/10/03 04:54:47;;;;;;;;;;;14.90;94.20;;;;;;5094278;28;19943;-90
2022/10/03 04:57:31;;;;;;;;;;;14.90;94.20;;;;;;5094193;28;20388;-90
2022/10/03 05:00:00;;;;;;;;;;;14.90;94.30;;;;;;5094089;28;20389;-90
2022/10/03 05:02:28;;;;;;;;;;;14.90;94.30;;;;;;5094211;28;19988;-90
2022/10/03 05:05:12;;;;;;;;;;;14.90;94.20;;;;;;5093931;28;19986;-90
2022/10/03 05:07:47;;;;;;;;;;;14.90;94.10;;;;;;5094122;28;19936;-90
2022/10/03 05:10:27;;;;;;;;;;;14.90;94.10;;;;;;5094019;28;19937;-91
2022/10/03 05:12:59;;;;;;;;;;;14.90;94.20;;;;;;5094242;28;20038;-90
2022/10/03 05:15:39;;;;;;;;;;;14.90;94.00;;;;;;5093434;28;20420;-90
2022/10/03 05:18:21;;;;;;;;;;;14.90;94.00;;;;;;5093862;28;20018;-91
2022/10/03 05:20:46;;;;;;;;;;;14.90;93.70;;;;;;5093415;28;19986;-90
2022/10/03 05:23:30;;;;;;;;;;;14.90;93.10;;;;;;5091483;28;19953;-90
2022/10/03 05:25:56;;;;;;;;;;;14.90;93.20;;;;;;5090369;28;20410;-90
2022/10/03 05:28:40;;;;;;;;;;;15.00;93.20;;;;;;5080218;28;19954;-90
2022/10/03 05:31:21;;;;;;;;;;;14.90;92.90;;;;;;5080853;28;19954;-90
2022/10/03 05:34:00;;;;;;;;;;;14.90;92.80;;;;;;5080721;28;19957;-90
2022/10/03 05:36:44;;;;;;;;;;;14.90;92.70;;;;;;5088305;28;19991;-90
2022/10/03 05:39:18;;;;;;;;;;;14.90;92.70;;;;;;5088047;28;20370;-90
2022/10/03 05:41:56;;;;;;;;;;;14.90;92.80;;;;;;5076519;28;19943;-90
2022/10/03 05:44:31;;;;;;;;;;;14.90;92.70;;;;;;5086359;28;19938;-90
2022/10/03 05:47:02;;;;;;;;;;;14.90;92.60;;;;;;5090386;28;19945;-90
2022/10/03 05:49:41;;;;;;;;;;;14.90;92.30;;;;;;5084181;28;19947;-90
2022/10/03 05:52:26;;;;;;;;;;;14.90;92.30;;;;;;5086572;28;19959;-90
2022/10/03 05:55:00;;;;;;;;;;;14.90;91.80;;;;;;5087788;28;19942;-90
2022/10/03 05:57:53;;;;;;;;;;;14.90;91.90;;;;;;5081952;28;19946;-90
2022/10/03 06:00:26;;;;;;;;;;;14.80;91.70;;;;;;5076791;28;19970;-91
2022/10/03 06:03:05;;;;;;;;;;;14.90;91.70;;;;;;5086297;28;19943;-90
2022/10/03 06:05:42;;;;;;;;;;;14.90;91.80;;;;;;5103423;22;20096;-91
2022/10/03 06:08:26;;;;;;;;;;;14.90;91.90;;;;;;5105868;28;20398;-90
2022/10/03 06:11:24;;;;;;;;;;;14.90;91.90;;;;;;5117136;28;19947;-91
2022/10/03 06:14:15;;;;;;;;;;;14.90;92.10;;;;;;5081730;28;20357;-89
2022/10/03 06:16:59;;;;;;;;;;;14.90;92.80;;;;;;5098930;28;20000;-90
2022/10/03 06:19:28;;;;;;;;;;;15.00;92.60;;;;;;5105286;28;20032;-90
2022/10/03 06:21:53;;;;;;;;;;;15.10;92.40;;;;;;5107556;28;19936;-90
2022/10/03 06:24:28;;;;;;;;;;;15.20;92.00;;;;;;5101599;28;20424;-91
2022/10/03 06:27:08;;;;;;;;;;;15.30;91.60;;;;;;5110395;28;19946;-90
2022/10/03 06:29:47;;;;;;;;;;;15.40;91.50;;;;;;5109054;27;20318;-90
2022/10/03 06:32:22;;;;;;;;;;;15.40;91.40;;;;;;5119958;27;19943;-90
2022/10/03 06:34:53;;;;;;;;;;;15.40;91.20;;;;;;5108743;27;19982;-90
2022/10/03 06:37:28;;;;;;;;;;;15.40;91.00;;;;;;5115076;27;20406;-90
2022/10/03 06:40:12;;;;;;;;;;;15.50;90.70;;;;;;5108363;28;19950;-90
2022/10/03 06:43:00;;;;;;;;;;;15.50;90.50;;;;;;5101133;28;19945;-90
2022/10/03 06:45:38;;;;;;;;;;;15.60;90.20;;;;;;5092713;27;19970;-91
2022/10/03 06:48:12;;;;;;;;;;;15.60;90.10;;;;;;5108690;27;19972;-92
2022/10/03 06:50:50;;;;;;;;;;;15.70;90.00;;;;;;5129883;27;19947;-91
2022/10/03 06:53:22;;;;;;;;;;;15.80;89.90;;;;;;5103745;28;19943;-90
2022/10/03 06:56:03;;;;;;;;;;;15.80;89.70;;;;;;5092913;28;20398;-91
2022/10/03 06:58:47;;;;;;;;;;;15.90;89.50;;;;;;5091359;28;19948;-92
2022/10/03 07:01:32;;;;;;;;;;;16.00;89.30;;;;;;5084662;28;19998;-91
2022/10/03 07:03:57;;;;;;;;;;;16.10;88.90;;;;;;5090036;28;20390;-91
2022/10/03 07:06:36;;;;;;;;;;;16.20;88.90;;;;;;5094455;28;20063;-91
2022/10/03 07:09:20;;;;;;;;;;;16.30;88.70;;;;;;5088364;28;20436;-91
2022/10/03 07:11:48;;;;;;;;;;;16.40;88.30;;;;;;5095086;28;19946;-91
2022/10/03 07:14:23;;;;;;;;;;;16.60;87.70;;;;;;5093711;28;19953;-92
2022/10/03 07:17:03;;;;;;;;;;;16.60;87.30;;;;;;5094972;28;19951;-91
2022/10/03 07:19:31;;;;;;;;;;;16.80;86.80;;;;;;5096370;28;19945;-91
2022/10/03 07:22:16;;;;;;;;;;;16.90;86.40;;;;;;5088447;28;20009;-91
2022/10/03 07:24:44;;;;;;;;;;;17.10;86.30;;;;;;5088144;28;20027;-92
2022/10/03 07:27:10;;;;;;;;;;;17.10;86.30;;;;;;5096563;28;19948;-91
2022/10/03 07:29:54;;;;;;;;;;;17.30;86.30;;;;;;5092218;28;19940;-91
2022/10/03 07:32:20;;;;;;;;;;;17.30;85.40;;;;;;5090972;28;19995;-92
2022/10/03 07:35:04;;;;;;;;;;;17.50;84.30;;;;;;5088892;28;20394;-91
2022/10/03 07:40:29;;;;;;;;;;;17.80;82.70;;;;;;5091828;28;19948;-90
2022/10/03 07:43:04;;;;;;;;;;;18.00;82.40;;;;;;5086644;28;20401;-91
2022/10/03 07:45:36;;;;;;;;;;;18.10;82.40;;;;;;5092780;28;19967;-91
2022/10/03 07:48:20;;;;;;;;;;;18.10;82.40;;;;;;5088870;28;20028;-90
2022/10/03 07:50:51;;;;;;;;;;;18.20;82.10;;;;;;5086672;28;19963;-91
2022/10/03 07:53:36;;;;;;;;;;;18.30;81.50;;;;;;5086459;28;20390;-92
2022/10/03 07:56:20;;;;;;;;;;;18.30;81.30;;;;;;5088788;28;19944;-92
2022/10/03 07:58:55;;;;;;;;;;;18.50;81.10;;;;;;5092956;28;19970;-91
2022/10/03 08:01:38;;;;;;;;;;;18.60;81.00;;;;;;5092077;28;19951;-92
2022/10/03 08:04:10;;;;;;;;;;;18.60;80.70;;;;;;5091792;28;19962;-90
2022/10/03 08:06:42;;;;;;;;;;;18.70;80.50;;;;;;5094513;28;19970;-91
2022/10/03 08:09:26;;;;;;;;;;;18.80;80.40;;;;;;5085231;28;19951;-92
2022/10/03 08:11:51;;;;;;;;;;;18.80;80.20;;;;;;5094395;28;19946;-91
2022/10/03 08:14:52;;;;;;;;;;;18.90;79.80;;;;;;5095101;28;20337;-90
2022/10/03 08:17:33;;;;;;;;;;;19.10;79.10;;;;;;5055359;28;19949;-91
2022/10/03 08:20:11;;;;;;;;;;;19.20;78.70;;;;;;5088832;28;19993;-91
2022/10/03 08:22:39;;;;;;;;;;;19.30;79.70;;;;;;5084750;28;19954;-91
2022/10/03 08:25:16;;;;;;;;;;;19.40;78.60;;;;;;5082668;28;20063;-92
2022/10/03 08:27:45;;;;;;;;;;;19.50;78.60;;;;;;5081905;28;20008;-91
2022/10/03 08:30:21;;;;;;;;;;;19.40;78.10;;;;;;5084354;28;19976;-91
2022/10/03 08:33:06;;;;;;;;;;;19.50;78.00;;;;;;5091164;28;19990;-90
2022/10/03 08:35:47;;;;;;;;;;;19.60;76.90;;;;;;5090418;28;19942;-91
2022/10/03 08:38:13;;;;;;;;;;;19.60;76.80;;;;;;5094551;28;19954;-91
2022/10/03 08:40:38;;;;;;;;;;;19.60;77.00;;;;;;5092644;28;20379;-91
2022/10/03 08:43:31;;;;;;;;;;;19.70;77.60;;;;;;5098124;28;20005;-90
2022/10/03 08:46:11;;;;;;;;;;;19.80;78.60;;;;;;5093114;28;20517;-91
2022/10/03 08:48:55;;;;;;;;;;;19.90;77.60;;;;;;5083043;28;19996;-92
2022/10/03 08:51:39;;;;;;;;;;;20.00;76.60;;;;;;5090259;28;19966;-90
2022/10/03 08:54:21;;;;;;;;;;;20.00;76.80;;;;;;5087881;28;20396;-90
2022/10/03 08:57:06;;;;;;;;;;;20.10;76.40;;;;;;5089253;28;19987;-91
2022/10/03 08:59:40;;;;;;;;;;;20.20;76.20;;;;;;5089937;28;19948;-91
2022/10/03 09:02:21;;;;;;;;;;;20.30;76.30;;;;;;5093458;28;19969;-90
2022/10/03 09:04:59;;;;;;;;;;;20.40;75.60;;;;;;5117439;27;20001;-90
2022/10/03 09:07:40;;;;;;;;;;;20.60;76.00;;;;;;5086747;28;19948;-90
2022/10/03 09:10:11;;;;;;;;;;;20.60;73.40;;;;;;5091226;28;20038;-91
2022/10/03 09:12:41;;;;;;;;;;;20.60;71.80;;;;;;5088637;28;19948;-90
2022/10/03 09:15:25;;;;;;;;;;;20.60;72.00;;;;;;5089817;28;20102;-91
2022/10/03 09:17:54;;;;;;;;;;;20.70;73.20;;;;;;5085833;28;19944;-90
2022/10/03 09:20:38;;;;;;;;;;;20.80;73.60;;;;;;5089223;28;19943;-90
2022/10/03 09:23:07;;;;;;;;;;;20.90;73.20;;;;;;5083877;28;19945;-90
2022/10/03 09:25:35;;;;;;;;;;;21.00;73.10;;;;;;5084603;28;20399;-89
2022/10/03 09:28:03;;;;;;;;;;;20.90;71.70;;;;;;5087667;28;19993;-91
2022/10/03 09:30:41;;;;;;;;;;;20.90;69.00;;;;;;5087016;28;19936;-91
2022/10/03 09:33:09;;;;;;;;;;;21.10;70.10;;;;;;5085627;28;19943;-91
2022/10/03 09:35:35;;;;;;;;;;;21.20;71.00;;;;;;5091136;28;19944;-91
2022/10/03 09:38:10;;;;;;;;;;;21.20;70.40;;;;;;5092981;28;19941;-90
2022/10/03 09:40:42;;;;;;;;;;;21.30;69.80;;;;;;5091028;28;19940;-91
2022/10/03 09:43:20;;;;;;;;;;;21.40;69.60;;;;;;5088918;28;19944;-90
2022/10/03 09:45:46;;;;;;;;;;;21.40;67.80;;;;;;5085199;28;19961;-91
2022/10/03 09:48:19;;;;;;;;;;;21.50;69.10;;;;;;5087998;28;19949;-90
2022/10/03 09:50:50;;;;;;;;;;;21.60;67.90;;;;;;5093258;28;19976;-90
2022/10/03 09:53:24;;;;;;;;;;;21.60;67.50;;;;;;5090321;28;20003;-91
2022/10/03 09:55:53;;;;;;;;;;;21.70;68.80;;;;;;5077617;28;19961;-91
2022/10/03 09:58:30;;;;;;;;;;;21.70;69.10;;;;;;5093592;28;19949;-91
2022/10/03 10:01:14;;;;;;;;;;;21.80;68.70;;;;;;5088273;28;20004;-91
2022/10/03 10:03:40;;;;;;;;;;;21.80;66.80;;;;;;5088656;28;20278;-90
2022/10/03 10:06:24;;;;;;;;;;;21.80;67.40;;;;;;5081627;28;19984;-90
2022/10/03 10:09:05;;;;;;;;;;;21.90;69.30;;;;;;5077006;28;20799;-91
2022/10/03 10:11:31;;;;;;;;;;;22.10;68.50;;;;;;5089075;28;20083;-91
2022/10/03 10:14:17;;;;;;;;;;;22.30;68.60;;;;;;5090409;28;20413;-90
2022/10/03 10:16:52;;;;;;;;;;;22.20;64.20;;;;;;5087693;28;20364;-91
2022/10/03 10:19:35;;;;;;;;;;;22.20;63.90;;;;;;5092421;28;20011;-90
2022/10/03 10:22:01;;;;;;;;;;;22.30;64.10;;;;;;5085606;28;19938;-91
2022/10/03 10:24:45;;;;;;;;;;;22.40;64.00;;;;;;5090655;28;19954;-90
2022/10/03 10:27:29;;;;;;;;;;;22.50;65.40;;;;;;5083072;28;20110;-91
2022/10/03 10:30:10;;;;;;;;;;;22.60;63.90;;;;;;5093332;28;19944;-90
2022/10/03 10:32:41;;;;;;;;;;;22.50;63.70;;;;;;5091660;28;20280;-90
2022/10/03 10:35:14;;;;;;;;;;;22.50;65.00;;;;;;5112466;28;19944;-91
2022/10/03 10:37:57;;;;;;;;;;;22.50;66.50;;;;;;5081152;28;19949;-91
2022/10/03 10:40:39;;;;;;;;;;;22.70;66.10;;;;;;5092844;28;19994;-90
2022/10/03 10:43:05;;;;;;;;;;;22.80;64.00;;;;;;5083822;28;19944;-91
2022/10/03 10:45:45;;;;;;;;;;;22.80;64.90;;;;;;5090315;28;20030;-91
2022/10/03 10:48:26;;;;;;;;;;;23.00;64.10;;;;;;5090778;28;20435;-91
2022/10/03 10:51:10;;;;;;;;;;;23.20;64.90;;;;;;5091152;28;20038;-91
2022/10/03 10:53:54;;;;;;;;;;;23.30;64.40;;;;;;5096859;28;19945;-90
2022/10/03 10:56:31;;;;;;;;;;;23.30;63.40;;;;;;5102157;28;19945;-90
2022/10/03 10:59:12;;;;;;;;;;;23.20;64.20;;;;;;5079773;28;19951;-90
2022/10/03 11:01:37;;;;;;;;;;;23.30;62.80;;;;;;5091788;28;19951;-91
2022/10/03 11:04:06;;;;;;;;;;;23.30;62.10;;;;;;5112965;28;19944;-91
2022/10/03 11:06:34;;;;;;;;;;;23.40;63.10;;;;;;5090819;28;19979;-90
2022/10/03 11:09:19;;;;;;;;;;;23.50;60.80;;;;;;5104446;28;19945;-90
2022/10/03 11:12:05;;;;;;;;;;;23.80;60.70;;;;;;5080798;28;19948;-90
2022/10/03 11:14:55;;;;;;;;;;;23.90;60.60;;;;;;5093042;28;20433;-90
2022/10/03 11:17:40;;;;;;;;;;;23.70;61.50;;;;;;5094199;28;19947;-91
2022/10/03 11:20:19;;;;;;;;;;;23.70;60.60;;;;;;5099688;28;19952;-90
2022/10/03 11:22:51;;;;;;;;;;;23.80;60.40;;;;;;5080130;28;20003;-91
2022/10/03 11:25:36;;;;;;;;;;;24.00;60.80;;;;;;5075250;28;19968;-90
2022/10/03 11:28:11;;;;;;;;;;;24.00;61.20;;;;;;5094259;28;19972;-91
2022/10/03 11:30:55;;;;;;;;;;;24.20;62.20;;;;;;5092980;28;19945;-91
2022/10/03 11:33:40;;;;;;;;;;;24.40;60.30;;;;;;5092569;28;19946;-90
2022/10/03 11:36:26;;;;;;;;;;;24.60;57.20;;;;;;5085123;28;20037;-90
2022/10/03 11:38:54;;;;;;;;;;;25.00;56.30;;;;;;5082319;28;19957;-90
2022/10/03 11:41:32;;;;;;;;;;;25.40;55.30;;;;;;5084616;28;20052;-91
2022/10/03 11:44:18;;;;;;;;;;;25.30;55.90;;;;;;5083959;28;19972;-91
2022/10/03 11:47:02;;;;;;;;;;;25.20;57.30;;;;;;5082675;28;20439;-90
2022/10/03 11:49:28;;;;;;;;;;;24.80;56.70;;;;;;5085110;28;19975;-90
2022/10/03 11:51:56;;;;;;;;;;;24.60;57.00;;;;;;5091941;28;20486;-90
2022/10/03 11:54:27;;;;;;;;;;;24.30;59.40;;;;;;5080838;28;19950;-90
2022/10/03 11:57:13;;;;;;;;;;;24.10;58.80;;;;;;5084220;28;20394;-90
2022/10/03 11:59:38;;;;;;;;;;;24.10;60.70;;;;;;5094370;28;19948;-91
2022/10/03 12:02:06;;;;;;;;;;;24.20;60.10;;;;;;5096568;28;19991;-90
2022/10/03 12:04:45;;;;;;;;;;;24.30;59.60;;;;;;5090590;28;20027;-90
2022/10/03 12:10:29;;;;;;;;;;;25.00;57.90;;;;;;5079512;28;21214;-92
2022/10/03 12:12:55;;;;;;;;;;;25.70;57.30;;;;;;5083872;28;20407;-91
2022/10/03 12:15:40;;;;;;;;;;;26.60;54.30;;;;;;5087500;28;19976;-91
2022/10/03 12:18:05;;;;;;;;;;;27.70;50.20;;;;;;5081188;28;20100;-91
2022/10/03 12:20:38;;;;;;;;;;;29.00;48.80;;;;;;5088316;28;19942;-90
2022/10/03 12:23:23;;;;;;;;;;;29.30;45.40;;;;;;5092041;28;19977;-91
2022/10/03 12:25:50;;;;;;;;;;;28.90;46.80;;;;;;5075345;28;20404;-91
2022/10/03 12:28:32;;;;;;;;;;;28.30;47.50;;;;;;5095985;28;19947;-91
2022/10/03 12:31:03;;;;;;;;;;;28.20;48.70;;;;;;5088083;28;19952;-91
2022/10/03 12:33:42;;;;;;;;;;;29.20;47.80;;;;;;5088841;28;19959;-91
2022/10/03 12:36:08;;;;;;;;;;;29.70;45.70;;;;;;5091826;28;19942;-91
2022/10/03 12:38:43;;;;;;;;;;;29.50;46.20;;;;;;5090554;28;19990;-91
2022/10/03 12:41:23;;;;;;;;;;;28.80;47.10;;;;;;5091185;28;19977;-91
2022/10/03 12:43:54;;;;;;;;;;;28.80;47.10;;;;;;5087404;28;20310;-92
2022/10/03 12:46:20;;;;;;;;;;;30.00;45.50;;;;;;5090152;28;20525;-91
2022/10/03 12:49:01;;;;;;;;;;;31.40;41.70;;;;;;5088997;28;20025;-91
2022/10/03 12:51:50;;;;;;;;;;;32.60;39.00;;;;;;5085676;28;20054;-91
2022/10/03 12:54:15;;;;;;;;;;;33.20;38.70;;;;;;5080512;28;19955;-92
2022/10/03 12:57:08;;;;;;;;;;;32.70;39.50;;;;;;5083556;28;20318;-91
2022/10/03 12:59:34;;;;;;;;;;;32.10;39.50;;;;;;5089575;28;19984;-91
2022/10/03 13:02:11;;;;;;;;;;;32.30;39.50;;;;;;5086029;28;19991;-91
2022/10/03 13:04:40;;;;;;;;;;;32.00;39.30;;;;;;5096216;28;19986;-91
2022/10/03 13:07:25;;;;;;;;;;;32.70;40.10;;;;;;5078477;28;19946;-91
2022/10/03 13:10:09;;;;;;;;;;;32.80;39.70;;;;;;5087192;28;19966;-91
2022/10/03 13:12:55;;;;;;;;;;;32.90;38.50;;;;;;5095843;28;19944;-92
2022/10/03 13:15:39;;;;;;;;;;;33.00;39.40;;;;;;5104086;27;20042;-91
2022/10/03 13:18:21;;;;;;;;;;;32.70;38.40;;;;;;5091924;28;19940;-92
2022/10/03 13:21:16;;;;;;;;;;;31.60;39.70;;;;;;5097379;28;19957;-91
2022/10/03 13:24:11;;;;;;;;;;;30.60;41.60;;;;;;5055905;28;19947;-91
2022/10/03 13:26:45;;;;;;;;;;;30.20;41.50;;;;;;5054475;28;20411;-91
2022/10/03 13:29:12;;;;;;;;;;;30.20;42.10;;;;;;5087527;28;20008;-91
2022/10/03 13:32:04;;;;;;;;;;;30.80;41.50;;;;;;5088899;28;20006;-91
2022/10/03 13:34:32;;;;;;;;;;;31.00;40.90;;;;;;5093250;28;19947;-90
2022/10/03 13:37:08;;;;;;;;;;;31.20;40.90;;;;;;5090199;28;20044;-90
2022/10/03 13:39:43;;;;;;;;;;;30.20;44.10;;;;;;5094821;28;19966;-91
2022/10/03 13:42:21;;;;;;;;;;;30.00;43.20;;;;;;5096526;28;19986;-91
2022/10/03 13:44:53;;;;;;;;;;;29.70;42.60;;;;;;5092403;28;20383;-91
2022/10/03 13:47:27;;;;;;;;;;;30.40;43.00;;;;;;5095602;28;19967;-91
2022/10/03 13:49:53;;;;;;;;;;;31.10;41.40;;;;;;5088421;28;20036;-91
2022/10/03 13:52:34;;;;;;;;;;;31.40;40.10;;;;;;5095350;28;20043;-91
2022/10/03 13:55:17;;;;;;;;;;;31.90;39.70;;;;;;5090783;28;19997;-91
2022/10/03 13:57:46;;;;;;;;;;;31.10;40.10;;;;;;5085733;28;20412;-91
2022/10/03 14:00:14;;;;;;;;;;;30.80;41.10;;;;;;5089854;28;19942;-92
2022/10/03 14:03:00;;;;;;;;;;;30.50;42.50;;;;;;5092662;28;20397;-91
2022/10/03 14:05:33;;;;;;;;;;;30.50;42.90;;;;;;5081429;22;19972;-90
2022/10/03 14:08:14;;;;;;;;;;;30.30;42.10;;;;;;5068659;28;19949;-91
2022/10/03 14:10:40;;;;;;;;;;;30.50;43.30;;;;;;5069179;28;19963;-92
2022/10/03 14:13:09;;;;;;;;;;;30.90;41.50;;;;;;5066262;28;19937;-91
2022/10/03 14:15:54;;;;;;;;;;;30.90;42.00;;;;;;5067901;28;20004;-91
2022/10/03 14:18:19;;;;;;;;;;;30.80;42.50;;;;;;5060974;28;19959;-92
2022/10/03 14:20:55;;;;;;;;;;;31.00;41.60;;;;;;5067826;28;19945;-91
2022/10/03 14:23:49;;;;;;;;;;;31.20;40.80;;;;;;5071211;28;20413;-91
2022/10/03 14:26:20;;;;;;;;;;;31.30;40.60;;;;;;4982358;28;20013;-92
2022/10/03 14:29:08;;;;;;;;;;;32.70;38.70;;;;;;5070966;28;19939;-92
2022/10/03 14:31:39;;;;;;;;;;;32.90;38.90;;;;;;5032289;28;19954;-92
2022/10/03 14:34:10;;;;;;;;;;;33.00;38.10;;;;;;5067675;28;19946;-93
2022/10/03 14:36:39;;;;;;;;;;;33.10;38.40;;;;;;5065122;28;19950;-92
2022/10/03 14:39:13;;;;;;;;;;;33.20;37.60;;;;;;5067695;28;20318;-91
2022/10/03 14:41:59;;;;;;;;;;;32.70;37.50;;;;;;5068665;28;19988;-92
2022/10/03 14:44:29;;;;;;;;;;;31.70;39.60;;;;;;5070226;28;19940;-91
2022/10/03 14:47:00;;;;;;;;;;;31.30;40.60;;;;;;5072295;28;20408;-92
2022/10/03 14:49:30;;;;;;;;;;;30.70;42.00;;;;;;5061052;28;20036;-91
2022/10/03 14:51:59;;;;;;;;;;;30.20;43.50;;;;;;5064979;28;19968;-91
2022/10/03 14:54:26;;;;;;;;;;;29.70;44.40;;;;;;5054748;28;19992;-91
2022/10/03 14:56:52;;;;;;;;;;;29.70;44.60;;;;;;5057923;28;19944;-92
2022/10/03 14:59:31;;;;;;;;;;;29.50;44.80;;;;;;5058120;28;20416;-91
2022/10/03 15:01:58;;;;;;;;;;;28.70;46.70;;;;;;5050974;28;19981;-91
2022/10/03 15:04:35;;;;;;;;;;;28.40;48.40;;;;;;5048842;28;19960;-91
2022/10/03 15:07:01;;;;;;;;;;;27.80;49.80;;;;;;5051954;28;20002;-92
2022/10/03 15:09:32;;;;;;;;;;;27.50;52.00;;;;;;5052545;28;19991;-91
2022/10/03 15:11:58;;;;;;;;;;;27.30;51.50;;;;;;5053044;28;19940;-91
2022/10/03 15:14:25;;;;;;;;;;;27.30;53.00;;;;;;5054919;28;20419;-92
2022/10/03 15:16:53;;;;;;;;;;;27.60;51.90;;;;;;5053552;28;20195;-92
2022/10/03 15:19:24;;;;;;;;;;;28.00;50.90;;;;;;5051002;28;19964;-92